sensor_id;sensor_type;location;lat;lon;timestamp;pressure;altitude;pressure_sealevel;temperature;humidity
5872;BME280;2962;51.312;7.378;2023-04-16T00:01:13;97710.06;;;5.46;100.00
5872;BME280;2962;51.312;7.378;2023-04-16T00:03:38;97710.56;;;5.39;100.00
5872;BME280;2962;51.312;7.378;2023-04-16T00:06:04;97713.06;;;5.45;100.00
5872;BME280;2962;51.312;7.378;2023-04-16T00:08:29;97704.91;;;5.32;100.00
5872;BME280;2962;51.312;7.378;2023-04-16T00:10:55;97711.63;;;5.47;100.00
5872;BME280;2962;51.312;7.378;2023-04-16T00:13:20;97715.59;;;5.50;100.00
5872;BME280;2962;51.312;7.378;2023-04-16T00:15:46;97707.38;;;5.46;100.00
5872;BME280;2962;51.312;7.378;2023-04-16T00:18:11;97709.00;;;5.38;100.00
5872;BME280;2962;51.312;7.378;2023-04-16T00:20:37;97710.56;;;5.39;100.00
5872;BME280;2962;51.312;7.378;2023-04-16T00:23:02;97720.34;;;5.53;100.00
5872;BME280;2962;51.312;7.378;2023-04-16T00:25:27;97721.00;;;5.50;100.00
5872;BME280;2962;51.312;7.378;2023-04-16T00:27:53;97727.84;;;5.47;100.00
5872;BME280;2962;51.312;7.378;2023-04-16T00:30:18;97704.91;;;5.32;100.00
5872;BME280;2962;51.312;7.378;2023-04-16T00:32:43;97715.19;;;5.39;100.00
5872;BME280;2962;51.312;7.378;2023-04-16T00:35:08;97715.84;;;5.36;100.00
5872;BME280;2962;51.312;7.378;2023-04-16T00:37:34;97713.34;;;5.31;100.00
5872;BME280;2962;51.312;7.378;2023-04-16T00:39:59;97708.16;;;5.17;100.00
5872;BME280;2962;51.312;7.378;2023-04-16T00:42:25;97720.31;;;5.32;100.00
5872;BME280;2962;51.312;7.378;2023-04-16T00:44:51;97714.13;;;5.31;100.00
5872;BME280;2962;51.312;7.378;2023-04-16T00:47:16;97719.97;;;5.33;100.00
5872;BME280;2962;51.312;7.378;2023-04-16T00:49:43;97719.66;;;5.35;100.00
5872;BME280;2962;51.312;7.378;2023-04-16T00:52:10;97717.63;;;5.32;100.00
5872;BME280;2962;51.312;7.378;2023-04-16T00:54:35;97730.47;;;5.35;100.00
5872;BME280;2962;51.312;7.378;2023-04-16T00:57:01;97738.38;;;5.40;100.00
5872;BME280;2962;51.312;7.378;2023-04-16T00:59:28;97732.84;;;5.36;100.00
5872;BME280;2962;51.312;7.378;2023-04-16T01:01:53;97715.22;;;5.30;100.00
5872;BME280;2962;51.312;7.378;2023-04-16T01:04:18;97743.44;;;5.42;100.00
5872;BME280;2962;51.312;7.378;2023-04-16T01:06:44;97742.66;;;5.41;100.00
5872;BME280;2962;51.312;7.378;2023-04-16T01:09:10;97729.34;;;5.36;100.00
5872;BME280;2962;51.312;7.378;2023-04-16T01:11:36;97743.78;;;5.40;100.00
5872;BME280;2962;51.312;7.378;2023-04-16T01:14:02;97732.97;;;5.40;100.00
5872;BME280;2962;51.312;7.378;2023-04-16T01:16:27;97740.16;;;5.36;100.00
5872;BME280;2962;51.312;7.378;2023-04-16T01:18:52;97742.22;;;5.39;100.00
5872;BME280;2962;51.312;7.378;2023-04-16T01:21:17;97739.16;;;5.41;100.00
5872;BME280;2962;51.312;7.378;2023-04-16T01:23:43;97744.44;;;5.37;100.00
5872;BME280;2962;51.312;7.378;2023-04-16T01:26:08;97740.50;;;5.34;100.00
5872;BME280;2962;51.312;7.378;2023-04-16T01:28:33;97729.41;;;5.27;100.00
5872;BME280;2962;51.312;7.378;2023-04-16T01:30:59;97736.25;;;5.25;100.00
5872;BME280;2962;51.312;7.378;2023-04-16T01:33:24;97734.31;;;5.25;100.00
5872;BME280;2962;51.312;7.378;2023-04-16T01:35:50;97726.69;;;5.27;100.00
5872;BME280;2962;51.312;7.378;2023-04-16T01:38:15;97734.53;;;5.20;100.00
5872;BME280;2962;51.312;7.378;2023-04-16T01:40:40;97757.63;;;5.38;100.00
5872;BME280;2962;51.312;7.378;2023-04-16T01:43:06;97738.16;;;5.24;100.00
5872;BME280;2962;51.312;7.378;2023-04-16T01:45:32;97733.72;;;5.20;100.00
5872;BME280;2962;51.312;7.378;2023-04-16T01:47:58;97750.34;;;5.30;100.00
5872;BME280;2962;51.312;7.378;2023-04-16T01:50:23;97738.34;;;5.19;100.00
5872;BME280;2962;51.312;7.378;2023-04-16T01:52:49;97751.31;;;5.26;100.00
5872;BME280;2962;51.312;7.378;2023-04-16T01:55:14;97755.44;;;5.32;100.00
5872;BME280;2962;51.312;7.378;2023-04-16T01:57:40;97755.72;;;5.39;100.00
5872;BME280;2962;51.312;7.378;2023-04-16T02:00:05;97751.41;;;5.38;100.00
5872;BME280;2962;51.312;7.378;2023-04-16T02:02:33;97747.94;;;5.37;100.00
5872;BME280;2962;51.312;7.378;2023-04-16T02:04:59;97740.66;;;5.29;100.00
5872;BME280;2962;51.312;7.378;2023-04-16T02:07:24;97742.25;;;5.30;100.00
5872;BME280;2962;51.312;7.378;2023-04-16T02:09:50;97741.59;;;5.33;100.00
5872;BME280;2962;51.312;7.378;2023-04-16T02:12:16;97749.06;;;5.36;100.00
5872;BME280;2962;51.312;7.378;2023-04-16T02:14:41;97747.47;;;5.35;100.00
5872;BME280;2962;51.312;7.378;2023-04-16T02:17:07;97744.56;;;5.41;100.00
5872;BME280;2962;51.312;7.378;2023-04-16T02:19:32;97740.50;;;5.34;100.00
5872;BME280;2962;51.312;7.378;2023-04-16T02:21:57;97748.41;;;5.39;100.00
5872;BME280;2962;51.312;7.378;2023-04-16T02:24:25;97746.63;;;5.44;100.00
5872;BME280;2962;51.312;7.378;2023-04-16T02:26:50;97748.53;;;5.43;100.00
5872;BME280;2962;51.312;7.378;2023-04-16T02:29:16;97729.41;;;5.27;100.00
5872;BME280;2962;51.312;7.378;2023-04-16T02:31:41;97748.06;;;5.41;100.00
5872;BME280;2962;51.312;7.378;2023-04-16T02:34:06;97734.25;;;5.43;100.00
5872;BME280;2962;51.312;7.378;2023-04-16T02:36:32;97729.94;;;5.42;100.00
5872;BME280;2962;51.312;7.378;2023-04-16T02:38:58;97751.38;;;5.47;100.00
5872;BME280;2962;51.312;7.378;2023-04-16T02:41:23;97727.63;;;5.31;100.00
5872;BME280;2962;51.312;7.378;2023-04-16T02:43:49;97731.84;;;5.41;100.00
5872;BME280;2962;51.312;7.378;2023-04-16T02:46:14;97743.78;;;5.40;100.00
5872;BME280;2962;51.312;7.378;2023-04-16T02:48:39;97751.56;;;5.42;100.00
5872;BME280;2962;51.312;7.378;2023-04-16T02:51:05;97739.09;;;5.28;100.00
5872;BME280;2962;51.312;7.378;2023-04-16T02:53:30;97742.06;;;5.35;100.00
5872;BME280;2962;51.312;7.378;2023-04-16T02:55:56;97747.94;;;5.37;100.00
5872;BME280;2962;51.312;7.378;2023-04-16T02:58:23;97755.88;;;5.34;100.00
5872;BME280;2962;51.312;7.378;2023-04-16T03:00:49;97754.78;;;5.35;100.00
5872;BME280;2962;51.312;7.378;2023-04-16T03:03:15;97751.75;;;5.36;100.00
5872;BME280;2962;51.312;7.378;2023-04-16T03:05:40;97749.69;;;5.33;100.00
5872;BME280;2962;51.312;7.378;2023-04-16T03:08:06;97753.19;;;5.34;100.00
5872;BME280;2962;51.312;7.378;2023-04-16T03:10:31;97753.66;;;5.36;100.00
5872;BME280;2962;51.312;7.378;2023-04-16T03:12:57;97757.81;;;5.33;100.00
5872;BME280;2962;51.312;7.378;2023-04-16T03:15:23;97749.56;;;5.30;100.00
5872;BME280;2962;51.312;7.378;2023-04-16T03:17:49;97748.47;;;5.31;100.00
5872;BME280;2962;51.312;7.378;2023-04-16T03:20:14;97750.81;;;5.32;100.00
5872;BME280;2962;51.312;7.378;2023-04-16T03:22:41;97738.16;;;5.24;100.00
5872;BME280;2962;51.312;7.378;2023-04-16T03:25:06;97752.59;;;5.28;100.00
5872;BME280;2962;51.312;7.378;2023-04-16T03:27:32;97744.28;;;5.33;100.00
5872;BME280;2962;51.312;7.378;2023-04-16T03:29:58;97752.25;;;5.30;100.00
5872;BME280;2962;51.312;7.378;2023-04-16T03:32:23;97760.56;;;5.25;100.00
5872;BME280;2962;51.312;7.378;2023-04-16T03:34:49;97743.41;;;5.21;100.00
5872;BME280;2962;51.312;7.378;2023-04-16T03:37:14;97768.44;;;5.38;100.00
5872;BME280;2962;51.312;7.378;2023-04-16T03:39:39;97756.81;;;5.38;100.00
5872;BME280;2962;51.312;7.378;2023-04-16T03:42:05;97760.94;;;5.44;100.00
5872;BME280;2962;51.312;7.378;2023-04-16T03:44:30;97756.38;;;5.36;100.00
5872;BME280;2962;51.312;7.378;2023-04-16T03:46:56;97745.91;;;5.34;100.00
5872;BME280;2962;51.312;7.378;2023-04-16T03:49:21;97760.59;;;5.46;100.00
5872;BME280;2962;51.312;7.378;2023-04-16T03:51:46;97756.97;;;5.42;100.00
5872;BME280;2962;51.312;7.378;2023-04-16T03:54:11;97768.44;;;5.38;100.00
5872;BME280;2962;51.312;7.378;2023-04-16T03:56:39;97753.81;;;5.39;100.00
5872;BME280;2962;51.312;7.378;2023-04-16T03:59:04;97747.94;;;5.37;100.00
5872;BME280;2962;51.312;7.378;2023-04-16T04:01:29;97768.38;;;5.47;100.00
5872;BME280;2962;51.312;7.378;2023-04-16T04:03:55;97761.56;;;5.41;100.00
5872;BME280;2962;51.312;7.378;2023-04-16T04:06:20;97765.19;;;5.54;100.00
5872;BME280;2962;51.312;7.378;2023-04-16T04:08:45;97763.97;;;5.43;100.00
5872;BME280;2962;51.312;7.378;2023-04-16T04:11:10;97764.41;;;5.45;100.00
5872;BME280;2962;51.312;7.378;2023-04-16T04:13:36;97766.34;;;5.44;100.00
5872;BME280;2962;51.312;7.378;2023-04-16T04:16:01;97771.22;;;5.51;100.00
5872;BME280;2962;51.312;7.378;2023-04-16T04:18:26;97773.94;;;5.51;100.00
5872;BME280;2962;51.312;7.378;2023-04-16T04:20:51;97763.63;;;5.44;100.00
5872;BME280;2962;51.312;7.378;2023-04-16T04:23:17;97773.16;;;5.50;100.00
5872;BME280;2962;51.312;7.378;2023-04-16T04:25:43;97766.47;;;5.48;100.00
5872;BME280;2962;51.312;7.378;2023-04-16T04:28:08;97768.97;;;5.53;100.00
5872;BME280;2962;51.312;7.378;2023-04-16T04:30:33;97776.78;;;5.54;100.00
5872;BME280;2962;51.312;7.378;2023-04-16T04:32:59;97783.75;;;5.55;100.00
5872;BME280;2962;51.312;7.378;2023-04-16T04:35:25;97784.75;;;5.51;100.00
5872;BME280;2962;51.312;7.378;2023-04-16T04:37:50;97788.69;;;5.53;100.00
5872;BME280;2962;51.312;7.378;2023-04-16T04:40:16;97782.19;;;5.54;100.00
5872;BME280;2962;51.312;7.378;2023-04-16T04:42:41;97801.53;;;5.65;100.00
5872;BME280;2962;51.312;7.378;2023-04-16T04:45:07;97789.16;;;5.55;100.00
5872;BME280;2962;51.312;7.378;2023-04-16T04:47:32;97801.84;;;5.63;100.00
5872;BME280;2962;51.312;7.378;2023-04-16T04:49:58;97780.25;;;5.55;100.00
5872;BME280;2962;51.312;7.378;2023-04-16T04:52:23;97790.44;;;5.58;100.00
5872;BME280;2962;51.312;7.378;2023-04-16T04:54:48;97799.47;;;5.62;100.00
5872;BME280;2962;51.312;7.378;2023-04-16T04:57:13;97802.75;;;5.68;100.00
5872;BME280;2962;51.312;7.378;2023-04-16T04:59:39;97805.47;;;5.68;100.00
5872;BME280;2962;51.312;7.378;2023-04-16T05:02:04;97795.97;;;5.61;100.00
5872;BME280;2962;51.312;7.378;2023-04-16T05:04:29;97813.06;;;5.74;100.00
5872;BME280;2962;51.312;7.378;2023-04-16T05:06:55;97795.06;;;5.57;100.00
5872;BME280;2962;51.312;7.378;2023-04-16T05:09:20;97794.72;;;5.59;100.00
5872;BME280;2962;51.312;7.378;2023-04-16T05:11:45;97799.19;;;5.55;100.00
5872;BME280;2962;51.312;7.378;2023-04-16T05:14:11;97806.03;;;5.52;100.00
5872;BME280;2962;51.312;7.378;2023-04-16T05:16:36;97815.69;;;5.62;100.00
5872;BME280;2962;51.312;7.378;2023-04-16T05:19:02;97815.16;;;5.69;100.00
5872;BME280;2962;51.312;7.378;2023-04-16T05:21:27;97824.25;;;5.64;100.00
5872;BME280;2962;51.312;7.378;2023-04-16T05:23:53;97811.22;;;5.66;100.00
5872;BME280;2962;51.312;7.378;2023-04-16T05:26:18;97799.84;;;5.52;100.00
5872;BME280;2962;51.312;7.378;2023-04-16T05:28:43;97799.88;;;5.43;100.00
5872;BME280;2962;51.312;7.378;2023-04-16T05:31:09;97816.75;;;5.70;100.00
5872;BME280;2962;51.312;7.378;2023-04-16T05:33:34;97830.06;;;5.75;100.00
5872;BME280;2962;51.312;7.378;2023-04-16T05:35:59;97815.63;;;5.71;100.00
5872;BME280;2962;51.312;7.378;2023-04-16T05:38:25;97830.06;;;5.75;100.00
5872;BME280;2962;51.312;7.378;2023-04-16T05:40:50;97816.63;;;5.66;100.00
5872;BME280;2962;51.312;7.378;2023-04-16T05:43:15;97835.03;;;5.73;100.00
5872;BME280;2962;51.312;7.378;2023-04-16T05:45:41;97835.69;;;5.70;100.00
5872;BME280;2962;51.312;7.378;2023-04-16T05:48:07;97841.16;;;5.82;100.00
5872;BME280;2962;51.312;7.378;2023-04-16T05:50:35;97845.16;;;5.84;100.00
5872;BME280;2962;51.312;7.378;2023-04-16T05:53:01;97835.03;;;5.73;100.00
5872;BME280;2962;51.312;7.378;2023-04-16T05:55:27;97835.06;;;5.64;100.00
5872;BME280;2962;51.312;7.378;2023-04-16T05:57:52;97843.44;;;5.71;100.00
5872;BME280;2962;51.312;7.378;2023-04-16T06:00:17;97856.78;;;5.76;100.00
5872;BME280;2962;51.312;7.378;2023-04-16T06:02:43;97840.31;;;5.60;100.00
5872;BME280;2962;51.312;7.378;2023-04-16T06:05:08;97854.63;;;5.61;100.00
5872;BME280;2962;51.312;7.378;2023-04-16T06:07:33;97852.03;;;5.73;100.00
5872;BME280;2962;51.312;7.378;2023-04-16T06:09:59;97848.28;;;5.66;100.00
5872;BME280;2962;51.312;7.378;2023-04-16T06:12:24;97855.16;;;5.84;100.00
5872;BME280;2962;51.312;7.378;2023-04-16T06:14:49;97855.53;;;5.74;100.00
5872;BME280;2962;51.312;7.378;2023-04-16T06:17:14;97853.91;;;5.81;100.00
5872;BME280;2962;51.312;7.378;2023-04-16T06:19:40;97864.53;;;5.86;100.00
5872;BME280;2962;51.312;7.378;2023-04-16T06:22:06;97869.50;;;5.76;100.00
5872;BME280;2962;51.312;7.378;2023-04-16T06:24:31;97866.50;;;5.77;100.00
5872;BME280;2962;51.312;7.378;2023-04-16T06:26:56;97858.38;;;5.77;100.00
5872;BME280;2962;51.312;7.378;2023-04-16T06:29:22;97858.94;;;5.62;100.00
5872;BME280;2962;51.312;7.378;2023-04-16T06:31:47;97857.16;;;5.66;100.00
5872;BME280;2962;51.312;7.378;2023-04-16T06:34:12;97854.47;;;5.66;100.00
5872;BME280;2962;51.312;7.378;2023-04-16T06:36:38;97872.53;;;5.74;100.00
5872;BME280;2962;51.312;7.378;2023-04-16T06:39:03;97876.81;;;5.75;100.00
5872;BME280;2962;51.312;7.378;2023-04-16T06:41:29;97880.94;;;5.81;100.00
5872;BME280;2962;51.312;7.378;2023-04-16T06:43:54;97881.31;;;5.71;100.00
5872;BME280;2962;51.312;7.378;2023-04-16T06:46:20;97879.22;;;5.77;100.00
5872;BME280;2962;51.312;7.378;2023-04-16T06:48:45;97881.63;;;5.70;100.00
5872;BME280;2962;51.312;7.378;2023-04-16T06:51:11;97884.00;;;5.71;100.00
5872;BME280;2962;51.312;7.378;2023-04-16T06:53:37;97892.75;;;5.77;100.00
5872;BME280;2962;51.312;7.378;2023-04-16T06:56:03;97889.38;;;5.80;100.00
5872;BME280;2962;51.312;7.378;2023-04-16T06:58:28;97889.78;;;5.91;100.00
5872;BME280;2962;51.312;7.378;2023-04-16T07:00:53;97894.06;;;5.92;100.00
5872;BME280;2962;51.312;7.378;2023-04-16T07:03:18;97894.13;;;5.83;100.00
5872;BME280;2962;51.312;7.378;2023-04-16T07:05:44;97901.72;;;5.98;100.00
5872;BME280;2962;51.312;7.378;2023-04-16T07:08:09;97900.00;;;5.94;100.00
5872;BME280;2962;51.312;7.378;2023-04-16T07:10:34;68197.53;;;-144.84;100.00
5872;BME280;2962;51.312;7.378;2023-04-16T07:13:00;97893.34;;;5.82;100.00
5872;BME280;2962;51.312;7.378;2023-04-16T07:15:26;97911.63;;;5.85;100.00
5872;BME280;2962;51.312;7.378;2023-04-16T07:17:51;97906.13;;;6.03;100.00
5872;BME280;2962;51.312;7.378;2023-04-16T07:20:16;68197.53;;;-144.84;100.00
5872;BME280;2962;51.312;7.378;2023-04-16T07:22:41;68197.53;;;-144.84;100.00
5872;BME280;2962;51.312;7.378;2023-04-16T07:25:07;68197.53;;;-144.84;100.00
5872;BME280;2962;51.312;7.378;2023-04-16T07:27:33;68197.53;;;-144.84;100.00
5872;BME280;2962;51.312;7.378;2023-04-16T07:29:58;97902.88;;;6.18;100.00
5872;BME280;2962;51.312;7.378;2023-04-16T07:32:30;68197.53;;;-144.84;100.00
5872;BME280;2962;51.312;7.378;2023-04-16T07:36:37;97918.97;;;6.15;100.00
5872;BME280;2962;51.312;7.378;2023-04-16T07:39:06;97910.53;;;6.16;100.00
5872;BME280;2962;51.312;7.378;2023-04-16T07:41:31;97911.31;;;6.17;100.00
5872;BME280;2962;51.312;7.378;2023-04-16T07:43:56;68197.53;;;-144.84;100.00
5872;BME280;2962;51.312;7.378;2023-04-16T07:46:22;68197.53;;;-144.84;100.00
5872;BME280;2962;51.312;7.378;2023-04-16T07:48:48;68197.53;;;-144.84;100.00
5872;BME280;2962;51.312;7.378;2023-04-16T07:51:13;97915.75;;;6.21;100.00
5872;BME280;2962;51.312;7.378;2023-04-16T07:53:38;97926.28;;;6.14;100.00
5872;BME280;2962;51.312;7.378;2023-04-16T07:56:04;68197.53;;;-144.84;100.00
5872;BME280;2962;51.312;7.378;2023-04-16T07:58:29;97928.97;;;6.23;100.00
5872;BME280;2962;51.312;7.378;2023-04-16T08:00:55;97923.84;;;6.21;100.00
5872;BME280;2962;51.312;7.378;2023-04-16T08:03:20;97922.66;;;6.10;100.00
5872;BME280;2962;51.312;7.378;2023-04-16T08:05:46;97936.94;;;6.19;100.00
5872;BME280;2962;51.312;7.378;2023-04-16T08:08:11;97939.59;;;6.28;100.00
5872;BME280;2962;51.312;7.378;2023-04-16T08:10:37;97940.00;;;6.39;100.00
5872;BME280;2962;51.312;7.378;2023-04-16T08:13:03;97936.09;;;6.48;100.00
5872;BME280;2962;51.312;7.378;2023-04-16T08:15:28;97935.50;;;6.43;100.00
5872;BME280;2962;51.312;7.378;2023-04-16T08:17:53;97948.25;;;6.42;100.00
5872;BME280;2962;51.312;7.378;2023-04-16T08:20:19;97950.69;;;6.35;100.00
5872;BME280;2962;51.312;7.378;2023-04-16T08:22:45;97955.06;;;6.48;100.00
5872;BME280;2962;51.312;7.378;2023-04-16T08:25:10;97965.75;;;6.45;100.00
5872;BME280;2962;51.312;7.378;2023-04-16T08:28:33;68197.53;;;-144.84;100.00
5872;BME280;2962;51.312;7.378;2023-04-16T08:30:59;97954.19;;;6.35;100.00
5872;BME280;2962;51.312;7.378;2023-04-16T08:33:44;68197.53;;;-144.84;100.00
5872;BME280;2962;51.312;7.378;2023-04-16T08:36:12;68197.53;;;-144.84;100.00
5872;BME280;2962;51.312;7.378;2023-04-16T08:39:35;68197.53;;;-144.84;100.00
5872;BME280;2962;51.312;7.378;2023-04-16T08:43:21;68197.53;;;-144.84;100.00
5872;BME280;2962;51.312;7.378;2023-04-16T08:45:27;68197.53;;;-144.84;100.00
5872;BME280;2962;51.312;7.378;2023-04-16T08:47:53;68197.53;;;-144.84;100.00
5872;BME280;2962;51.312;7.378;2023-04-16T08:50:23;68197.53;;;-144.84;100.00
5872;BME280;2962;51.312;7.378;2023-04-16T08:52:50;68197.53;;;-144.84;100.00
5872;BME280;2962;51.312;7.378;2023-04-16T08:55:19;68197.53;;;-144.84;100.00
5872;BME280;2962;51.312;7.378;2023-04-16T08:57:59;68197.53;;;-144.84;100.00
5872;BME280;2962;51.312;7.378;2023-04-16T09:00:25;68197.53;;;-144.84;100.00
5872;BME280;2962;51.312;7.378;2023-04-16T09:02:51;68197.53;;;-144.84;100.00
5872;BME280;2962;51.312;7.378;2023-04-16T09:05:17;68197.53;;;-144.84;100.00
5872;BME280;2962;51.312;7.378;2023-04-16T09:07:51;68197.53;;;-144.84;100.00
5872;BME280;2962;51.312;7.378;2023-04-16T09:10:17;68197.53;;;-144.84;100.00
5872;BME280;2962;51.312;7.378;2023-04-16T09:12:43;68197.53;;;-144.84;100.00
5872;BME280;2962;51.312;7.378;2023-04-16T09:15:10;68197.53;;;-144.84;100.00
5872;BME280;2962;51.312;7.378;2023-04-16T09:17:36;68197.53;;;-144.84;100.00
5872;BME280;2962;51.312;7.378;2023-04-16T09:20:06;68197.53;;;-144.84;100.00
5872;BME280;2962;51.312;7.378;2023-04-16T09:22:36;68197.53;;;-144.84;100.00
5872;BME280;2962;51.312;7.378;2023-04-16T09:25:02;68197.53;;;-144.84;100.00
5872;BME280;2962;51.312;7.378;2023-04-16T09:27:29;68197.53;;;-144.84;100.00
5872;BME280;2962;51.312;7.378;2023-04-16T09:29:54;68197.53;;;-144.84;100.00
5872;BME280;2962;51.312;7.378;2023-04-16T09:32:24;68197.53;;;-144.84;100.00
5872;BME280;2962;51.312;7.378;2023-04-16T09:35:01;68197.53;;;-144.84;100.00
5872;BME280;2962;51.312;7.378;2023-04-16T09:37:33;68197.53;;;-144.84;100.00
